createdAt,value
2019-03-26T00:02:12.353Z,86.60
2019-03-26T00:04:41.280Z,87.30
2019-03-26T00:07:10.116Z,88.10
2019-03-26T00:09:38.959Z,88.00
2019-03-26T00:12:08.051Z,87.40
2019-03-26T00:14:36.887Z,87.80
2019-03-26T00:17:05.732Z,88.10
2019-03-26T00:19:34.637Z,88.20
2019-03-26T00:22:11.349Z,88.40
2019-03-26T00:24:43.284Z,88.40
2019-03-26T00:27:16.664Z,90.30
2019-03-26T00:29:45.494Z,89.60
2019-03-26T00:32:14.375Z,90.10
2019-03-26T00:34:43.215Z,90.50
2019-03-26T00:37:12.057Z,89.60
2019-03-26T00:39:40.961Z,90.60
2019-03-26T00:42:09.810Z,90.20
2019-03-26T00:44:38.642Z,90.30
2019-03-26T00:47:07.551Z,90.00
2019-03-26T00:49:41.031Z,89.60
2019-03-26T00:52:09.874Z,89.80
2019-03-26T00:54:38.868Z,89.20
2019-03-26T00:57:07.704Z,88.70
2019-03-26T00:59:36.562Z,89.10
2019-03-26T01:02:05.470Z,89.50
2019-03-26T01:04:34.309Z,88.70
2019-03-26T01:07:03.169Z,89.60
2019-03-26T01:09:32.065Z,89.30
2019-03-26T01:12:00.914Z,90.00
2019-03-26T01:14:29.960Z,90.00
2019-03-26T01:16:58.831Z,89.10
2019-03-26T01:19:27.667Z,89.60
2019-03-26T01:21:56.502Z,89.80
2019-03-26T01:24:25.399Z,89.80
2019-03-26T01:26:54.252Z,90.10
2019-03-26T01:29:23.217Z,90.00
2019-03-26T01:31:52.105Z,89.60
2019-03-26T01:34:20.930Z,90.10
2019-03-26T01:36:49.762Z,90.00
2019-03-26T01:39:18.646Z,89.70
2019-03-26T01:41:47.474Z,90.00
2019-03-26T01:44:16.327Z,90.10
2019-03-26T01:46:45.221Z,90.40
2019-03-26T01:49:14.145Z,90.70
2019-03-26T01:51:45.878Z,90.70
2019-03-26T01:54:14.870Z,90.90
2019-03-26T01:56:43.786Z,90.70
2019-03-26T01:59:12.674Z,90.80
2019-03-26T02:01:41.533Z,91.00
2019-03-26T02:04:10.361Z,91.40
2019-03-26T02:06:39.206Z,91.50
2019-03-26T02:09:08.238Z,91.50
2019-03-26T02:11:37.095Z,91.60
2019-03-26T02:14:05.940Z,91.90
2019-03-26T02:16:35.719Z,91.60
2019-03-26T02:19:04.552Z,91.30
2019-03-26T02:21:33.335Z,91.40
2019-03-26T02:24:02.192Z,91.40
2019-03-26T02:26:31.055Z,91.60
2019-03-26T02:28:59.896Z,91.50
2019-03-26T02:31:28.809Z,91.20
2019-03-26T02:33:57.670Z,91.20
2019-03-26T02:36:27.990Z,91.50
2019-03-26T02:38:56.865Z,91.60
2019-03-26T02:41:25.706Z,91.40
2019-03-26T02:43:54.539Z,91.10
2019-03-26T02:46:23.423Z,91.10
2019-03-26T02:48:52.258Z,91.50
2019-03-26T02:51:21.111Z,91.40
2019-03-26T02:53:50.031Z,91.60
2019-03-26T02:56:18.869Z,91.50
2019-03-26T02:58:47.766Z,91.80
2019-03-26T03:01:16.623Z,91.40
2019-03-26T03:03:45.469Z,91.20
2019-03-26T03:06:14.295Z,90.60
2019-03-26T03:08:43.200Z,90.50
2019-03-26T03:11:12.056Z,90.50
2019-03-26T03:13:40.884Z,90.10
2019-03-26T03:16:09.813Z,90.30
2019-03-26T03:18:39.521Z,90.30
2019-03-26T03:21:08.367Z,90.40
2019-03-26T03:23:37.453Z,90.60
2019-03-26T03:26:06.278Z,90.50
2019-03-26T03:28:35.126Z,90.60
2019-03-26T03:31:04.003Z,90.90
2019-03-26T03:33:32.851Z,90.90
2019-03-26T03:36:01.697Z,91.20
2019-03-26T03:38:30.586Z,91.50
2019-03-26T03:40:59.426Z,91.50
2019-03-26T03:43:28.259Z,91.50
2019-03-26T03:45:57.143Z,91.70
2019-03-26T03:48:26.290Z,91.80
2019-03-26T03:50:56.527Z,91.80
2019-03-26T03:53:26.519Z,91.90
2019-03-26T03:55:58.656Z,92.00
2019-03-26T03:58:29.065Z,91.90
2019-03-26T04:00:57.969Z,91.40
2019-03-26T04:03:26.810Z,91.00
2019-03-26T04:06:08.222Z,90.50
2019-03-26T04:08:26.191Z,90.30
2019-03-26T04:10:55.017Z,90.00
2019-03-26T04:13:23.866Z,89.80
2019-03-26T04:15:52.751Z,89.60
2019-03-26T04:18:21.586Z,89.50
2019-03-26T04:20:50.432Z,89.40
2019-03-26T04:23:19.351Z,89.20
2019-03-26T04:25:48.194Z,89.50
2019-03-26T04:28:17.042Z,89.50
2019-03-26T04:30:45.957Z,90.00
2019-03-26T04:33:14.807Z,89.10
2019-03-26T04:35:43.739Z,89.20
2019-03-26T04:38:12.628Z,88.80
2019-03-26T04:40:41.467Z,88.10
2019-03-26T04:43:10.301Z,88.60
2019-03-26T04:45:39.212Z,88.80
2019-03-26T04:48:08.039Z,88.90
2019-03-26T04:50:36.880Z,88.80
2019-03-26T04:53:05.778Z,89.00
2019-03-26T04:55:34.807Z,88.90
2019-03-26T04:58:03.654Z,89.00
2019-03-26T05:00:32.634Z,88.90
2019-03-26T05:03:01.466Z,88.70
2019-03-26T05:05:30.314Z,88.50
2019-03-26T05:07:59.211Z,88.50
2019-03-26T05:10:28.053Z,89.20
2019-03-26T05:12:56.896Z,89.00
2019-03-26T05:15:25.798Z,89.40
2019-03-26T05:17:56.675Z,89.60
2019-03-26T05:20:25.133Z,89.60
2019-03-26T05:22:54.837Z,89.60
2019-03-26T05:25:23.681Z,90.00
2019-03-26T05:27:52.520Z,90.10
2019-03-26T05:30:21.426Z,90.40
2019-03-26T05:32:50.257Z,90.30
2019-03-26T05:35:19.108Z,90.30
2019-03-26T05:37:48.006Z,90.00
2019-03-26T05:40:16.876Z,90.10
2019-03-26T05:42:45.695Z,90.40
2019-03-26T05:45:14.968Z,90.40
2019-03-26T05:47:43.808Z,90.40
2019-03-26T05:50:13.347Z,90.10
2019-03-26T05:52:42.270Z,89.40
2019-03-26T05:55:11.417Z,89.30
2019-03-26T05:57:40.281Z,89.00
2019-03-26T06:00:13.147Z,89.10
2019-03-26T06:02:41.978Z,89.60
2019-03-26T06:05:10.825Z,90.00
2019-03-26T06:07:39.713Z,90.00
2019-03-26T06:10:09.742Z,90.00
2019-03-26T06:12:38.582Z,89.00
2019-03-26T06:15:08.515Z,88.00
2019-03-26T06:17:37.333Z,86.70
2019-03-26T06:20:07.370Z,86.20
2019-03-26T06:22:36.240Z,85.30
2019-03-26T06:25:07.788Z,84.40
2019-03-26T06:27:36.603Z,83.50
2019-03-26T06:30:08.476Z,82.90
2019-03-26T06:32:37.434Z,82.00
2019-03-26T06:35:08.576Z,81.80
2019-03-26T06:37:37.593Z,83.20
2019-03-26T06:40:08.831Z,82.80
2019-03-26T06:42:37.674Z,82.70
2019-03-26T06:45:11.089Z,82.80
2019-03-26T06:47:39.934Z,83.00
2019-03-26T06:50:10.468Z,81.80
2019-03-26T06:52:39.645Z,80.60
2019-03-26T06:55:09.476Z,79.60
2019-03-26T06:57:38.387Z,78.60
2019-03-26T07:00:10.283Z,77.30
2019-03-26T07:02:39.438Z,77.20
2019-03-26T07:05:08.787Z,76.70
2019-03-26T07:07:37.716Z,75.90
2019-03-26T07:10:08.665Z,75.30
2019-03-26T07:12:37.510Z,75.20
2019-03-26T07:15:27.168Z,74.90
2019-03-26T07:17:57.995Z,75.00
2019-03-26T07:20:26.841Z,74.30
2019-03-26T07:22:56.300Z,74.10
2019-03-26T07:25:26.030Z,75.80
2019-03-26T07:27:54.894Z,75.60
2019-03-26T07:30:40.942Z,77.00
2019-03-26T07:33:09.979Z,76.80
2019-03-26T07:35:38.914Z,76.00
2019-03-26T07:38:07.853Z,75.90
2019-03-26T07:40:36.713Z,76.70
2019-03-26T07:43:06.068Z,78.90
2019-03-26T07:45:35.159Z,76.30
2019-03-26T07:48:03.998Z,70.60
2019-03-26T07:50:32.823Z,70.50
2019-03-26T07:53:01.942Z,66.60
2019-03-26T07:55:30.740Z,65.50
2019-03-26T07:57:59.612Z,65.90
2019-03-26T08:00:33.554Z,63.00
2019-03-26T08:03:02.382Z,62.60
2019-03-26T08:05:31.223Z,63.30
2019-03-26T08:08:00.113Z,59.50
2019-03-26T08:10:28.965Z,60.60
2019-03-26T08:12:57.902Z,60.00
2019-03-26T08:15:26.845Z,59.30
2019-03-26T08:17:55.724Z,57.90
2019-03-26T08:20:24.569Z,56.90
2019-03-26T08:22:53.488Z,56.00
2019-03-26T08:25:22.315Z,56.50
2019-03-26T08:27:51.159Z,55.40
2019-03-26T08:30:20.053Z,53.90
2019-03-26T08:32:48.915Z,53.30
2019-03-26T08:35:17.748Z,55.60
2019-03-26T08:37:46.623Z,55.70
2019-03-26T08:40:15.567Z,55.20
2019-03-26T08:42:44.418Z,55.20
2019-03-26T08:45:13.533Z,53.70
2019-03-26T08:47:42.387Z,53.20
2019-03-26T08:50:11.439Z,54.10
2019-03-26T08:52:40.319Z,54.40
2019-03-26T08:55:10.349Z,54.40
2019-03-26T08:57:39.194Z,54.00
2019-03-26T09:00:10.183Z,54.50
2019-03-26T09:02:39.006Z,56.50
2019-03-26T09:05:08.441Z,57.50
2019-03-26T09:07:38.284Z,58.30
2019-03-26T09:10:09.849Z,57.70
2019-03-26T09:12:39.698Z,55.40
2019-03-26T09:15:14.236Z,53.10
2019-03-26T09:17:44.348Z,52.20
2019-03-26T09:20:13.526Z,53.50
2019-03-26T09:22:42.433Z,54.00
2019-03-26T09:25:11.468Z,54.10
2019-03-26T09:27:40.312Z,49.30
2019-03-26T09:30:11.414Z,46.60
2019-03-26T09:32:40.487Z,48.40
2019-03-26T09:35:10.117Z,51.50
2019-03-26T09:37:39.003Z,50.10
2019-03-26T09:40:09.452Z,50.00
2019-03-26T09:42:38.792Z,48.90
2019-03-26T09:45:10.005Z,51.30
2019-03-26T09:47:38.937Z,52.90
2019-03-26T09:50:12.452Z,54.40
2019-03-26T09:52:41.334Z,54.00
2019-03-26T09:55:10.788Z,49.40
2019-03-26T09:57:39.639Z,46.20
2019-03-26T10:00:10.902Z,46.50
2019-03-26T10:02:42.807Z,49.10
2019-03-26T10:05:10.329Z,51.60
2019-03-26T10:07:39.225Z,53.00
2019-03-26T10:10:08.865Z,54.50
2019-03-26T10:12:37.710Z,55.80
2019-03-26T10:15:09.969Z,55.40
2019-03-26T10:17:38.820Z,57.00
2019-03-26T10:20:08.978Z,54.30
2019-03-26T10:22:39.335Z,53.90
2019-03-26T10:25:11.272Z,52.20
2019-03-26T10:27:40.055Z,51.90
2019-03-26T10:30:11.702Z,53.80
2019-03-26T10:32:40.852Z,54.60
2019-03-26T10:35:10.989Z,53.90
2019-03-26T10:37:39.887Z,52.00
2019-03-26T10:40:09.937Z,52.60
2019-03-26T10:42:38.758Z,53.70
2019-03-26T10:45:08.161Z,54.50
2019-03-26T10:47:36.991Z,55.20
2019-03-26T10:50:07.300Z,56.30
2019-03-26T10:52:36.179Z,56.00
2019-03-26T10:55:06.340Z,56.50
2019-03-26T10:57:35.565Z,54.90
2019-03-26T11:00:06.742Z,54.60
2019-03-26T11:02:35.662Z,54.40
2019-03-26T11:05:06.640Z,54.40
2019-03-26T11:07:35.527Z,52.40
2019-03-26T11:10:07.234Z,52.90
2019-03-26T11:12:36.066Z,52.40
2019-03-26T11:15:09.427Z,52.70
2019-03-26T11:17:38.264Z,52.10
2019-03-26T11:20:07.492Z,52.60
2019-03-26T11:22:36.491Z,54.00
2019-03-26T11:25:11.812Z,55.40
2019-03-26T11:27:39.133Z,55.10
2019-03-26T11:30:08.801Z,55.30
2019-03-26T11:32:37.946Z,55.20
2019-03-26T11:35:09.003Z,54.10
2019-03-26T11:37:39.149Z,52.60
2019-03-26T11:40:09.096Z,52.10
2019-03-26T11:42:37.922Z,51.60
2019-03-26T11:45:08.703Z,51.30
2019-03-26T11:47:38.760Z,51.10
2019-03-26T11:50:08.393Z,50.80
2019-03-26T11:52:38.178Z,50.80
2019-03-26T11:55:08.729Z,50.80
2019-03-26T11:57:37.572Z,49.90
2019-03-26T12:00:09.233Z,50.60
2019-03-26T12:02:38.081Z,49.00
2019-03-26T12:05:08.430Z,47.80
2019-03-26T12:07:37.918Z,47.90
2019-03-26T12:10:08.925Z,48.40
2019-03-26T12:12:38.560Z,48.40
2019-03-26T12:15:08.678Z,48.30
2019-03-26T12:17:37.467Z,47.60
2019-03-26T12:20:08.541Z,47.90
2019-03-26T12:22:37.392Z,48.60
2019-03-26T12:25:07.237Z,49.50
2019-03-26T12:27:36.753Z,49.10
2019-03-26T12:30:10.561Z,49.70
2019-03-26T12:32:41.071Z,49.90
2019-03-26T12:35:11.717Z,49.80
2019-03-26T12:37:41.409Z,48.50
2019-03-26T12:40:10.282Z,48.30
2019-03-26T12:42:39.158Z,46.90
2019-03-26T12:45:08.300Z,47.60
2019-03-26T12:47:37.147Z,46.30
2019-03-26T12:50:07.740Z,45.40
2019-03-26T12:52:36.577Z,45.20
2019-03-26T12:55:06.406Z,45.10
2019-03-26T12:57:35.350Z,44.80
2019-03-26T13:00:05.986Z,44.90
2019-03-26T13:02:36.088Z,44.70
2019-03-26T13:05:07.094Z,45.00
2019-03-26T13:07:35.916Z,46.00
2019-03-26T13:10:13.994Z,46.70
2019-03-26T13:12:38.785Z,47.20
2019-03-26T13:15:08.424Z,47.10
2019-03-26T13:17:37.251Z,46.70
2019-03-26T13:20:07.137Z,46.10
2019-03-26T13:22:35.999Z,45.70
2019-03-26T13:25:06.846Z,44.00
2019-03-26T13:27:35.749Z,43.40
2019-03-26T13:30:06.675Z,43.70
2019-03-26T13:32:35.523Z,44.30
2019-03-26T13:35:08.949Z,44.80
2019-03-26T13:37:37.796Z,44.10
2019-03-26T13:40:07.074Z,43.80
2019-03-26T13:42:35.949Z,43.90
2019-03-26T13:45:06.592Z,43.90
2019-03-26T13:47:35.436Z,43.70
2019-03-26T13:50:07.869Z,43.60
2019-03-26T13:52:36.702Z,44.60
2019-03-26T13:55:09.326Z,44.40
2019-03-26T13:57:39.245Z,43.30
2019-03-26T14:00:10.363Z,42.70
2019-03-26T14:02:39.239Z,42.10
2019-03-26T14:05:25.445Z,42.40
2019-03-26T14:07:54.274Z,41.70
2019-03-26T14:10:23.126Z,42.80
2019-03-26T14:12:52.041Z,43.10
2019-03-26T14:15:20.899Z,43.70
2019-03-26T14:17:49.770Z,43.80
2019-03-26T14:20:19.164Z,44.20
2019-03-26T14:22:48.010Z,43.90
2019-03-26T14:25:16.847Z,44.00
2019-03-26T14:27:45.750Z,44.00
2019-03-26T14:30:15.302Z,44.30
2019-03-26T14:32:44.183Z,44.10
2019-03-26T14:35:13.192Z,43.40
2019-03-26T14:37:51.113Z,43.70
2019-03-26T14:40:12.743Z,43.00
2019-03-26T14:42:41.666Z,43.20
2019-03-26T14:45:10.632Z,43.50
2019-03-26T14:47:39.487Z,43.70
2019-03-26T14:50:08.924Z,44.30
2019-03-26T14:52:37.742Z,45.50
2019-03-26T14:55:08.188Z,44.60
2019-03-26T14:57:37.096Z,44.40
2019-03-26T15:00:07.353Z,45.40
2019-03-26T15:02:36.313Z,45.30
2019-03-26T15:05:06.922Z,45.90
2019-03-26T15:07:35.779Z,45.50
2019-03-26T15:10:06.218Z,45.50
2019-03-26T15:12:35.126Z,44.90
2019-03-26T15:15:05.162Z,44.90
2019-03-26T15:17:34.043Z,44.80
2019-03-26T15:20:03.065Z,44.10
2019-03-26T15:22:31.919Z,43.10
2019-03-26T15:25:00.761Z,43.60
2019-03-26T15:27:29.640Z,44.00
2019-03-26T15:29:58.498Z,44.20
2019-03-26T15:32:27.355Z,44.60
2019-03-26T15:34:56.244Z,44.70
2019-03-26T15:37:25.112Z,45.30
2019-03-26T15:39:54.014Z,44.90
2019-03-26T15:42:23.034Z,45.00
2019-03-26T15:44:51.898Z,45.30
2019-03-26T15:47:20.760Z,45.50
2019-03-26T15:49:49.685Z,46.10
2019-03-26T15:52:18.538Z,45.50
2019-03-26T15:54:47.398Z,46.00
2019-03-26T15:57:16.293Z,46.10
2019-03-26T15:59:45.143Z,46.50
2019-03-26T16:02:14.078Z,47.30
2019-03-26T16:04:42.991Z,46.70
2019-03-26T16:07:11.845Z,45.70
2019-03-26T16:09:40.696Z,46.50
2019-03-26T16:12:09.602Z,46.50
2019-03-26T16:14:38.453Z,46.70
2019-03-26T16:17:07.299Z,47.30
2019-03-26T16:19:36.696Z,47.20
2019-03-26T16:22:05.710Z,47.20
2019-03-26T16:24:34.571Z,47.70
2019-03-26T16:27:03.516Z,47.70
2019-03-26T16:29:32.354Z,48.90
2019-03-26T16:32:01.206Z,48.30
2019-03-26T16:34:30.099Z,48.60
2019-03-26T16:37:00.077Z,47.80
2019-03-26T16:39:29.131Z,48.50
2019-03-26T16:41:58.039Z,48.40
2019-03-26T16:44:26.896Z,48.80
2019-03-26T16:46:55.787Z,48.50
2019-03-26T16:49:24.812Z,49.10
2019-03-26T16:51:53.720Z,49.10
2019-03-26T16:54:22.567Z,48.70
2019-03-26T16:56:51.490Z,49.50
2019-03-26T16:59:20.322Z,49.60
2019-03-26T17:01:49.188Z,48.90
2019-03-26T17:04:18.070Z,48.30
2019-03-26T17:06:47.309Z,48.60
2019-03-26T17:09:16.150Z,48.60
2019-03-26T17:11:45.072Z,48.60
2019-03-26T17:14:13.924Z,48.50
2019-03-26T17:16:42.790Z,48.50
2019-03-26T17:19:11.685Z,49.00
2019-03-26T17:21:40.550Z,49.70
2019-03-26T17:24:09.406Z,49.70
2019-03-26T17:26:38.303Z,49.70
2019-03-26T17:29:07.165Z,49.70
2019-03-26T17:31:36.036Z,50.50
2019-03-26T17:34:05.039Z,51.70
2019-03-26T17:36:33.860Z,52.70
2019-03-26T17:39:02.697Z,53.90
2019-03-26T17:41:31.597Z,53.90
2019-03-26T17:44:00.453Z,55.10
2019-03-26T17:46:29.702Z,56.20
2019-03-26T17:48:58.635Z,57.30
2019-03-26T17:51:27.503Z,58.50
2019-03-26T17:53:56.365Z,58.20
2019-03-26T17:56:25.300Z,59.10
2019-03-26T17:58:54.163Z,60.30
2019-03-26T18:01:23.017Z,61.30
2019-03-26T18:03:52.525Z,61.20
2019-03-26T18:06:21.407Z,60.30
2019-03-26T18:08:50.276Z,59.30
2019-03-26T18:11:19.186Z,62.00
2019-03-26T18:13:48.041Z,61.60
2019-03-26T18:16:16.867Z,61.10
2019-03-26T18:18:45.979Z,61.90
2019-03-26T18:21:14.834Z,61.80
2019-03-26T18:23:43.694Z,61.60
2019-03-26T18:26:12.582Z,63.00
2019-03-26T18:28:41.427Z,64.40
2019-03-26T18:31:10.279Z,65.30
2019-03-26T18:33:39.176Z,65.70
2019-03-26T18:36:08.041Z,65.70
2019-03-26T18:38:36.915Z,66.40
2019-03-26T18:41:05.927Z,67.10
2019-03-26T18:43:34.782Z,68.00
2019-03-26T18:46:03.642Z,68.60
2019-03-26T18:48:32.526Z,68.40
2019-03-26T18:51:01.488Z,68.80
2019-03-26T18:53:30.336Z,69.20
2019-03-26T18:55:59.265Z,69.80
2019-03-26T18:58:28.111Z,69.90
2019-03-26T19:00:57.465Z,70.20
2019-03-26T19:03:26.534Z,70.70
2019-03-26T19:05:55.407Z,71.20
2019-03-26T19:08:24.267Z,71.30
2019-03-26T19:10:53.183Z,71.40
2019-03-26T19:13:22.034Z,71.80
2019-03-26T19:15:50.881Z,72.30
2019-03-26T19:18:19.785Z,72.40
2019-03-26T19:21:01.007Z,72.10
2019-03-26T19:23:19.151Z,71.70
2019-03-26T19:25:48.171Z,71.50
2019-03-26T19:28:17.578Z,71.70
2019-03-26T19:30:46.439Z,71.50
2019-03-26T19:33:15.344Z,71.70
2019-03-26T19:35:44.193Z,72.20
2019-03-26T19:38:13.049Z,72.50
2019-03-26T19:40:41.947Z,72.90
2019-03-26T19:43:11.744Z,72.80
2019-03-26T19:45:40.840Z,73.30
2019-03-26T19:48:09.754Z,73.80
2019-03-26T19:50:38.608Z,73.90
2019-03-26T19:53:07.465Z,74.00
2019-03-26T19:55:36.375Z,74.20
2019-03-26T19:58:05.260Z,74.70
2019-03-26T20:00:34.184Z,74.70
2019-03-26T20:03:03.728Z,74.90
2019-03-26T20:05:35.219Z,75.10
2019-03-26T20:08:03.078Z,75.30
2019-03-26T20:10:32.007Z,75.20
2019-03-26T20:13:00.889Z,76.00
2019-03-26T20:15:29.805Z,75.80
2019-03-26T20:17:58.703Z,76.40
2019-03-26T20:20:27.558Z,76.60
2019-03-26T20:22:56.412Z,76.70
2019-03-26T20:25:25.329Z,76.70
2019-03-26T20:27:54.180Z,76.60
2019-03-26T20:30:23.559Z,76.90
2019-03-26T20:32:52.566Z,77.40
2019-03-26T20:35:21.425Z,77.60
2019-03-26T20:37:50.272Z,77.90
2019-03-26T20:40:19.276Z,77.90
2019-03-26T20:42:48.121Z,79.10
2019-03-26T20:45:18.616Z,78.90
2019-03-26T20:47:47.518Z,78.30
2019-03-26T20:50:16.466Z,78.30
2019-03-26T20:52:45.330Z,79.20
2019-03-26T20:55:15.840Z,79.20
2019-03-26T20:57:45.297Z,79.40
2019-03-26T21:00:17.097Z,80.40
2019-03-26T21:02:46.024Z,80.50
2019-03-26T21:05:14.903Z,81.00
2019-03-26T21:07:43.804Z,81.40
2019-03-26T21:10:12.681Z,81.50
2019-03-26T21:12:41.622Z,81.70
2019-03-26T21:15:10.927Z,81.90
2019-03-26T21:17:39.883Z,82.00
2019-03-26T21:20:10.328Z,81.90
2019-03-26T21:22:39.183Z,82.00
2019-03-26T21:25:09.685Z,81.90
2019-03-26T21:27:38.545Z,82.20
2019-03-26T21:30:15.110Z,82.40
2019-03-26T21:32:40.848Z,82.70
2019-03-26T21:35:10.112Z,82.90
2019-03-26T21:37:39.474Z,83.10
2019-03-26T21:40:10.168Z,83.60
2019-03-26T21:42:39.028Z,83.70
2019-03-26T21:45:10.259Z,83.80
2019-03-26T21:47:39.143Z,84.00
2019-03-26T21:50:08.502Z,84.00
2019-03-26T21:52:37.373Z,84.10
2019-03-26T21:55:08.709Z,84.20
2019-03-26T21:57:38.392Z,84.30
2019-03-26T22:00:09.134Z,84.00
2019-03-26T22:02:38.036Z,83.30
2019-03-26T22:05:10.311Z,82.30
2019-03-26T22:07:39.180Z,81.80
2019-03-26T22:10:08.900Z,81.40
2019-03-26T22:12:42.563Z,80.90
2019-03-26T22:15:14.069Z,81.20
2019-03-26T22:17:43.934Z,81.00
2019-03-26T22:20:19.117Z,80.60
2019-03-26T22:22:51.117Z,81.00
2019-03-26T22:25:21.511Z,80.10
2019-03-26T22:27:50.452Z,80.00
2019-03-26T22:30:19.601Z,79.50
2019-03-26T22:32:48.443Z,79.80
2019-03-26T22:35:17.579Z,79.50
2019-03-26T22:37:46.442Z,76.20
2019-03-26T22:40:15.398Z,73.20
2019-03-26T22:42:44.297Z,68.70
2019-03-26T22:45:13.449Z,67.70
2019-03-26T22:47:42.291Z,63.60
2019-03-26T22:50:11.950Z,59.20
2019-03-26T22:52:40.962Z,57.80
2019-03-26T22:55:10.822Z,57.20
2019-03-26T22:57:39.726Z,56.80
2019-03-26T23:00:16.034Z,55.60
2019-03-26T23:02:45.116Z,56.00
2019-03-26T23:05:18.660Z,55.70
2019-03-26T23:07:47.527Z,55.50
2019-03-26T23:10:16.950Z,55.20
2019-03-26T23:12:45.815Z,55.20
2019-03-26T23:15:20.283Z,54.80
2019-03-26T23:17:49.352Z,54.90
2019-03-26T23:20:18.304Z,54.80
2019-03-26T23:22:47.502Z,54.90
2019-03-26T23:25:16.761Z,54.50
2019-03-26T23:27:45.600Z,54.90
2019-03-26T23:30:14.942Z,55.00
2019-03-26T23:32:43.784Z,55.20
2019-03-26T23:35:12.828Z,55.70
2019-03-26T23:37:41.721Z,56.00
2019-03-26T23:40:10.968Z,56.50
2019-03-26T23:42:39.818Z,57.20
2019-03-26T23:45:09.095Z,57.40
2019-03-26T23:47:37.948Z,57.50
2019-03-26T23:50:08.099Z,57.60
2019-03-26T23:52:37.517Z,57.50
2019-03-26T23:55:09.460Z,57.70
2019-03-26T23:57:38.311Z,57.80
